sensor_id;sensor_type;location;lat;lon;timestamp;temperature;humidity
70851;DHT22;58475;49.662;9.636;2024-01-07T00:01:55;4.38;98.07
70851;DHT22;58475;49.662;9.636;2024-01-07T00:04:20;4.37;98.06
70851;DHT22;58475;49.662;9.636;2024-01-07T00:06:46;4.32;98.22
70851;DHT22;58475;49.662;9.636;2024-01-07T00:09:12;4.37;98.19
70851;DHT22;58475;49.662;9.636;2024-01-07T00:11:40;4.37;98.20
70851;DHT22;58475;49.662;9.636;2024-01-07T00:14:06;4.44;97.94
70851;DHT22;58475;49.662;9.636;2024-01-07T00:16:31;4.46;97.85
70851;DHT22;58475;49.662;9.636;2024-01-07T00:18:57;4.51;97.52
70851;DHT22;58475;49.662;9.636;2024-01-07T00:21:23;4.32;98.02
70851;DHT22;58475;49.662;9.636;2024-01-07T00:23:50;4.38;97.94
70851;DHT22;58475;49.662;9.636;2024-01-07T00:26:15;4.41;97.86
70851;DHT22;58475;49.662;9.636;2024-01-07T00:28:41;4.35;97.94
70851;DHT22;58475;49.662;9.636;2024-01-07T00:31:06;4.37;97.92
70851;DHT22;58475;49.662;9.636;2024-01-07T00:33:35;4.30;98.05
70851;DHT22;58475;49.662;9.636;2024-01-07T00:36:03;4.28;98.14
70851;DHT22;58475;49.662;9.636;2024-01-07T00:38:28;4.31;98.15
70851;DHT22;58475;49.662;9.636;2024-01-07T00:40:53;4.27;98.30
70851;DHT22;58475;49.662;9.636;2024-01-07T00:43:19;4.25;98.33
70851;DHT22;58475;49.662;9.636;2024-01-07T00:45:45;4.25;98.42
70851;DHT22;58475;49.662;9.636;2024-01-07T00:48:10;4.14;98.67
70851;DHT22;58475;49.662;9.636;2024-01-07T00:50:36;4.18;98.60
70851;DHT22;58475;49.662;9.636;2024-01-07T00:53:01;4.21;98.54
70851;DHT22;58475;49.662;9.636;2024-01-07T00:55:27;4.24;98.39
70851;DHT22;58475;49.662;9.636;2024-01-07T00:57:52;4.25;98.29
70851;DHT22;58475;49.662;9.636;2024-01-07T01:00:18;4.24;98.24
70851;DHT22;58475;49.662;9.636;2024-01-07T01:02:45;4.24;98.24
70851;DHT22;58475;49.662;9.636;2024-01-07T01:05:10;4.24;98.27
70851;DHT22;58475;49.662;9.636;2024-01-07T01:07:36;4.14;98.48
70851;DHT22;58475;49.662;9.636;2024-01-07T01:10:01;4.08;98.97
70851;DHT22;58475;49.662;9.636;2024-01-07T01:12:26;4.15;98.90
70851;DHT22;58475;49.662;9.636;2024-01-07T01:14:52;4.25;98.43
70851;DHT22;58475;49.662;9.636;2024-01-07T01:17:17;4.22;98.19
70851;DHT22;58475;49.662;9.636;2024-01-07T01:19:42;4.20;98.30
70851;DHT22;58475;49.662;9.636;2024-01-07T01:22:08;4.27;98.13
70851;DHT22;58475;49.662;9.636;2024-01-07T01:24:33;4.14;98.40
70851;DHT22;58475;49.662;9.636;2024-01-07T01:26:58;4.08;98.83
70851;DHT22;58475;49.662;9.636;2024-01-07T01:29:24;4.14;98.74
70851;DHT22;58475;49.662;9.636;2024-01-07T01:31:49;4.20;98.49
70851;DHT22;58475;49.662;9.636;2024-01-07T01:34:15;4.11;98.39
70851;DHT22;58475;49.662;9.636;2024-01-07T01:36:40;4.17;98.38
70851;DHT22;58475;49.662;9.636;2024-01-07T01:39:05;4.03;98.60
70851;DHT22;58475;49.662;9.636;2024-01-07T01:41:32;3.97;99.00
70851;DHT22;58475;49.662;9.636;2024-01-07T01:43:58;3.98;98.64
70851;DHT22;58475;49.662;9.636;2024-01-07T01:46:24;4.08;98.42
70851;DHT22;58475;49.662;9.636;2024-01-07T01:48:50;4.07;98.19
70851;DHT22;58475;49.662;9.636;2024-01-07T01:51:16;4.01;98.13
70851;DHT22;58475;49.662;9.636;2024-01-07T01:53:41;3.91;98.14
70851;DHT22;58475;49.662;9.636;2024-01-07T01:56:07;3.83;98.26
70851;DHT22;58475;49.662;9.636;2024-01-07T01:58:33;3.77;98.27
70851;DHT22;58475;49.662;9.636;2024-01-07T02:00:58;3.79;98.34
70851;DHT22;58475;49.662;9.636;2024-01-07T02:03:24;3.73;98.38
70851;DHT22;58475;49.662;9.636;2024-01-07T02:05:51;3.79;98.29
70851;DHT22;58475;49.662;9.636;2024-01-07T02:08:18;3.93;98.37
70851;DHT22;58475;49.662;9.636;2024-01-07T02:10:44;3.94;98.26
70851;DHT22;58475;49.662;9.636;2024-01-07T02:13:10;3.93;98.29
70851;DHT22;58475;49.662;9.636;2024-01-07T02:15:35;3.87;98.13
70851;DHT22;58475;49.662;9.636;2024-01-07T02:18:01;3.70;98.58
70851;DHT22;58475;49.662;9.636;2024-01-07T02:20:26;3.77;98.53
70851;DHT22;58475;49.662;9.636;2024-01-07T02:22:52;3.82;98.69
70851;DHT22;58475;49.662;9.636;2024-01-07T02:25:17;3.73;98.67
70851;DHT22;58475;49.662;9.636;2024-01-07T02:27:43;3.76;98.86
70851;DHT22;58475;49.662;9.636;2024-01-07T02:30:08;3.82;98.67
70851;DHT22;58475;49.662;9.636;2024-01-07T02:32:34;3.77;98.64
70851;DHT22;58475;49.662;9.636;2024-01-07T02:35:01;3.77;98.61
70851;DHT22;58475;49.662;9.636;2024-01-07T02:37:26;3.83;98.77
70851;DHT22;58475;49.662;9.636;2024-01-07T02:39:52;3.91;98.58
70851;DHT22;58475;49.662;9.636;2024-01-07T02:42:17;3.87;98.49
70851;DHT22;58475;49.662;9.636;2024-01-07T02:44:43;3.84;98.72
70851;DHT22;58475;49.662;9.636;2024-01-07T02:47:08;3.87;98.56
70851;DHT22;58475;49.662;9.636;2024-01-07T02:49:34;3.86;98.60
70851;DHT22;58475;49.662;9.636;2024-01-07T02:51:59;3.79;98.65
70851;DHT22;58475;49.662;9.636;2024-01-07T02:54:24;3.84;98.60
70851;DHT22;58475;49.662;9.636;2024-01-07T02:56:50;3.80;98.71
70851;DHT22;58475;49.662;9.636;2024-01-07T02:59:15;3.74;98.77
70851;DHT22;58475;49.662;9.636;2024-01-07T03:01:40;3.73;98.89
70851;DHT22;58475;49.662;9.636;2024-01-07T03:04:09;3.73;99.09
70851;DHT22;58475;49.662;9.636;2024-01-07T03:06:34;3.70;99.15
70851;DHT22;58475;49.662;9.636;2024-01-07T03:09:00;3.77;99.04
70851;DHT22;58475;49.662;9.636;2024-01-07T03:11:25;3.86;98.94
70851;DHT22;58475;49.662;9.636;2024-01-07T03:13:51;3.83;99.03
70851;DHT22;58475;49.662;9.636;2024-01-07T03:16:23;3.90;98.88
70851;DHT22;58475;49.662;9.636;2024-01-07T03:18:49;4.03;99.00
70851;DHT22;58475;49.662;9.636;2024-01-07T03:21:22;4.01;98.85
70851;DHT22;58475;49.662;9.636;2024-01-07T03:23:49;4.13;99.19
70851;DHT22;58475;49.662;9.636;2024-01-07T03:26:16;4.08;98.92
70851;DHT22;58475;49.662;9.636;2024-01-07T03:28:41;4.11;99.08
70851;DHT22;58475;49.662;9.636;2024-01-07T03:31:09;4.10;99.14
70851;DHT22;58475;49.662;9.636;2024-01-07T03:33:34;4.15;99.29
70851;DHT22;58475;49.662;9.636;2024-01-07T03:35:59;4.14;99.11
70851;DHT22;58475;49.662;9.636;2024-01-07T03:38:25;4.11;99.37
70851;DHT22;58475;49.662;9.636;2024-01-07T03:40:50;4.17;99.14
70851;DHT22;58475;49.662;9.636;2024-01-07T03:43:16;4.27;98.65
70851;DHT22;58475;49.662;9.636;2024-01-07T03:45:41;4.35;98.54
70851;DHT22;58475;49.662;9.636;2024-01-07T03:48:08;4.31;98.67
70851;DHT22;58475;49.662;9.636;2024-01-07T03:50:33;4.31;98.71
70851;DHT22;58475;49.662;9.636;2024-01-07T03:52:59;4.34;98.35
70851;DHT22;58475;49.662;9.636;2024-01-07T03:55:24;4.40;98.34
70851;DHT22;58475;49.662;9.636;2024-01-07T03:57:49;4.40;98.27
70851;DHT22;58475;49.662;9.636;2024-01-07T04:00:18;4.54;97.94
70851;DHT22;58475;49.662;9.636;2024-01-07T04:02:44;4.49;97.76
70851;DHT22;58475;49.662;9.636;2024-01-07T04:05:09;4.48;97.80
70851;DHT22;58475;49.662;9.636;2024-01-07T04:07:35;4.42;97.60
70851;DHT22;58475;49.662;9.636;2024-01-07T04:10:00;4.48;97.11
70851;DHT22;58475;49.662;9.636;2024-01-07T04:12:25;4.56;95.20
70851;DHT22;58475;49.662;9.636;2024-01-07T04:14:51;4.63;95.13
70851;DHT22;58475;49.662;9.636;2024-01-07T04:17:16;4.63;93.43
70851;DHT22;58475;49.662;9.636;2024-01-07T04:19:41;4.73;93.67
70851;DHT22;58475;49.662;9.636;2024-01-07T04:22:07;4.65;93.98
70851;DHT22;58475;49.662;9.636;2024-01-07T04:24:32;4.66;92.77
70851;DHT22;58475;49.662;9.636;2024-01-07T04:26:57;4.69;91.47
70851;DHT22;58475;49.662;9.636;2024-01-07T04:29:22;4.69;91.63
70851;DHT22;58475;49.662;9.636;2024-01-07T04:31:48;4.58;92.26
70851;DHT22;58475;49.662;9.636;2024-01-07T04:34:14;4.59;92.01
70851;DHT22;58475;49.662;9.636;2024-01-07T04:36:39;4.65;91.16
70851;DHT22;58475;49.662;9.636;2024-01-07T04:39:04;4.65;90.73
70851;DHT22;58475;49.662;9.636;2024-01-07T04:41:30;4.54;91.25
70851;DHT22;58475;49.662;9.636;2024-01-07T04:43:55;4.45;91.25
70851;DHT22;58475;49.662;9.636;2024-01-07T04:46:20;4.51;90.84
70851;DHT22;58475;49.662;9.636;2024-01-07T04:48:46;4.52;90.33
70851;DHT22;58475;49.662;9.636;2024-01-07T04:51:11;4.56;90.75
70851;DHT22;58475;49.662;9.636;2024-01-07T04:53:36;4.61;90.62
70851;DHT22;58475;49.662;9.636;2024-01-07T04:56:02;4.45;91.54
70851;DHT22;58475;49.662;9.636;2024-01-07T04:58:28;4.52;90.32
70851;DHT22;58475;49.662;9.636;2024-01-07T05:00:53;4.49;90.80
70851;DHT22;58475;49.662;9.636;2024-01-07T05:03:18;4.61;89.45
70851;DHT22;58475;49.662;9.636;2024-01-07T05:05:44;4.51;89.92
70851;DHT22;58475;49.662;9.636;2024-01-07T05:08:09;4.42;89.96
70851;DHT22;58475;49.662;9.636;2024-01-07T05:10:34;4.40;89.82
70851;DHT22;58475;49.662;9.636;2024-01-07T05:13:00;4.42;89.13
70851;DHT22;58475;49.662;9.636;2024-01-07T05:15:30;4.45;89.13
70851;DHT22;58475;49.662;9.636;2024-01-07T05:17:55;4.45;89.04
70851;DHT22;58475;49.662;9.636;2024-01-07T05:20:21;4.41;88.63
70851;DHT22;58475;49.662;9.636;2024-01-07T05:22:46;4.44;89.22
70851;DHT22;58475;49.662;9.636;2024-01-07T05:25:11;4.44;89.17
70851;DHT22;58475;49.662;9.636;2024-01-07T05:27:37;4.34;88.96
70851;DHT22;58475;49.662;9.636;2024-01-07T05:30:02;4.34;89.21
70851;DHT22;58475;49.662;9.636;2024-01-07T05:32:28;4.49;88.51
70851;DHT22;58475;49.662;9.636;2024-01-07T05:34:53;4.44;89.30
70851;DHT22;58475;49.662;9.636;2024-01-07T05:37:18;4.37;89.64
70851;DHT22;58475;49.662;9.636;2024-01-07T05:39:44;4.49;89.04
70851;DHT22;58475;49.662;9.636;2024-01-07T05:42:09;4.37;89.14
70851;DHT22;58475;49.662;9.636;2024-01-07T05:44:35;4.40;89.17
70851;DHT22;58475;49.662;9.636;2024-01-07T05:47:00;4.38;88.69
70851;DHT22;58475;49.662;9.636;2024-01-07T05:49:25;4.31;88.60
70851;DHT22;58475;49.662;9.636;2024-01-07T05:51:51;4.35;88.22
70851;DHT22;58475;49.662;9.636;2024-01-07T05:54:16;4.27;88.57
70851;DHT22;58475;49.662;9.636;2024-01-07T05:56:41;4.35;87.76
70851;DHT22;58475;49.662;9.636;2024-01-07T05:59:07;4.42;88.13
70851;DHT22;58475;49.662;9.636;2024-01-07T06:01:33;4.45;88.24
70851;DHT22;58475;49.662;9.636;2024-01-07T06:03:58;4.42;88.49
70851;DHT22;58475;49.662;9.636;2024-01-07T06:06:23;4.30;88.07
70851;DHT22;58475;49.662;9.636;2024-01-07T06:08:49;4.22;88.41
70851;DHT22;58475;49.662;9.636;2024-01-07T06:11:14;4.21;89.31
70851;DHT22;58475;49.662;9.636;2024-01-07T06:13:44;4.30;88.80
70851;DHT22;58475;49.662;9.636;2024-01-07T06:16:09;4.25;88.76
70851;DHT22;58475;49.662;9.636;2024-01-07T06:18:35;4.37;87.55
70851;DHT22;58475;49.662;9.636;2024-01-07T06:21:00;4.34;88.40
70851;DHT22;58475;49.662;9.636;2024-01-07T06:23:25;4.22;88.19
70851;DHT22;58475;49.662;9.636;2024-01-07T06:25:51;4.21;88.34
70851;DHT22;58475;49.662;9.636;2024-01-07T06:28:16;4.21;88.30
70851;DHT22;58475;49.662;9.636;2024-01-07T06:30:42;4.27;87.87
70851;DHT22;58475;49.662;9.636;2024-01-07T06:33:07;4.24;87.89
70851;DHT22;58475;49.662;9.636;2024-01-07T06:35:32;4.24;87.88
70851;DHT22;58475;49.662;9.636;2024-01-07T06:37:58;4.20;88.79
70851;DHT22;58475;49.662;9.636;2024-01-07T06:40:23;4.21;88.87
70851;DHT22;58475;49.662;9.636;2024-01-07T06:42:49;4.18;87.29
70851;DHT22;58475;49.662;9.636;2024-01-07T06:45:15;4.24;87.09
70851;DHT22;58475;49.662;9.636;2024-01-07T06:47:40;4.21;87.67
70851;DHT22;58475;49.662;9.636;2024-01-07T06:50:06;4.24;88.55
70851;DHT22;58475;49.662;9.636;2024-01-07T06:52:32;4.20;88.12
70851;DHT22;58475;49.662;9.636;2024-01-07T06:54:57;4.14;88.81
70851;DHT22;58475;49.662;9.636;2024-01-07T06:57:22;4.07;89.22
70851;DHT22;58475;49.662;9.636;2024-01-07T06:59:48;4.05;89.18
70851;DHT22;58475;49.662;9.636;2024-01-07T07:02:13;4.07;89.09
70851;DHT22;58475;49.662;9.636;2024-01-07T07:04:38;3.98;89.75
70851;DHT22;58475;49.662;9.636;2024-01-07T07:07:03;4.03;89.21
70851;DHT22;58475;49.662;9.636;2024-01-07T07:09:29;4.00;89.10
70851;DHT22;58475;49.662;9.636;2024-01-07T07:11:54;3.97;89.00
70851;DHT22;58475;49.662;9.636;2024-01-07T07:14:19;3.98;88.94
70851;DHT22;58475;49.662;9.636;2024-01-07T07:16:45;3.94;89.06
70851;DHT22;58475;49.662;9.636;2024-01-07T07:19:11;3.94;88.96
70851;DHT22;58475;49.662;9.636;2024-01-07T07:21:40;3.91;89.10
70851;DHT22;58475;49.662;9.636;2024-01-07T07:24:06;3.91;88.82
70851;DHT22;58475;49.662;9.636;2024-01-07T07:26:31;3.84;87.76
70851;DHT22;58475;49.662;9.636;2024-01-07T07:28:57;3.73;88.06
70851;DHT22;58475;49.662;9.636;2024-01-07T07:31:22;3.83;88.33
70851;DHT22;58475;49.662;9.636;2024-01-07T07:33:47;3.89;88.09
70851;DHT22;58475;49.662;9.636;2024-01-07T07:36:14;3.87;87.51
70851;DHT22;58475;49.662;9.636;2024-01-07T07:38:40;3.80;87.50
70851;DHT22;58475;49.662;9.636;2024-01-07T07:41:05;3.80;87.53
70851;DHT22;58475;49.662;9.636;2024-01-07T07:43:33;3.77;86.97
70851;DHT22;58475;49.662;9.636;2024-01-07T07:45:58;3.73;86.29
70851;DHT22;58475;49.662;9.636;2024-01-07T07:48:24;3.70;86.82
70851;DHT22;58475;49.662;9.636;2024-01-07T07:50:51;3.73;86.76
70851;DHT22;58475;49.662;9.636;2024-01-07T07:53:16;3.63;86.36
70851;DHT22;58475;49.662;9.636;2024-01-07T07:55:42;3.66;86.60
70851;DHT22;58475;49.662;9.636;2024-01-07T07:58:07;3.72;86.33
70851;DHT22;58475;49.662;9.636;2024-01-07T08:00:33;3.69;86.79
70851;DHT22;58475;49.662;9.636;2024-01-07T08:02:59;3.63;85.62
70851;DHT22;58475;49.662;9.636;2024-01-07T08:05:24;3.60;86.23
70851;DHT22;58475;49.662;9.636;2024-01-07T08:07:49;3.66;86.84
70851;DHT22;58475;49.662;9.636;2024-01-07T08:10:15;3.67;87.21
70851;DHT22;58475;49.662;9.636;2024-01-07T08:12:41;3.69;86.18
70851;DHT22;58475;49.662;9.636;2024-01-07T08:15:07;3.55;86.51
70851;DHT22;58475;49.662;9.636;2024-01-07T08:17:32;3.52;86.24
70851;DHT22;58475;49.662;9.636;2024-01-07T08:19:58;3.49;85.11
70851;DHT22;58475;49.662;9.636;2024-01-07T08:22:23;3.43;84.62
70851;DHT22;58475;49.662;9.636;2024-01-07T08:24:49;3.31;84.63
70851;DHT22;58475;49.662;9.636;2024-01-07T08:27:15;3.39;84.79
70851;DHT22;58475;49.662;9.636;2024-01-07T08:29:42;3.36;84.54
70851;DHT22;58475;49.662;9.636;2024-01-07T08:32:09;3.31;84.89
70851;DHT22;58475;49.662;9.636;2024-01-07T08:34:34;3.33;84.54
70851;DHT22;58475;49.662;9.636;2024-01-07T08:37:00;3.43;83.98
70851;DHT22;58475;49.662;9.636;2024-01-07T08:39:25;3.35;84.45
70851;DHT22;58475;49.662;9.636;2024-01-07T08:41:51;3.35;84.99
70851;DHT22;58475;49.662;9.636;2024-01-07T08:44:17;3.39;86.73
70851;DHT22;58475;49.662;9.636;2024-01-07T08:46:42;3.42;85.67
70851;DHT22;58475;49.662;9.636;2024-01-07T08:49:08;3.48;84.82
70851;DHT22;58475;49.662;9.636;2024-01-07T08:51:33;3.35;85.14
70851;DHT22;58475;49.662;9.636;2024-01-07T08:53:58;3.39;85.49
70851;DHT22;58475;49.662;9.636;2024-01-07T08:56:24;3.46;85.39
70851;DHT22;58475;49.662;9.636;2024-01-07T08:58:50;3.48;85.01
70851;DHT22;58475;49.662;9.636;2024-01-07T09:01:17;3.38;85.97
70851;DHT22;58475;49.662;9.636;2024-01-07T09:03:42;3.31;84.45
70851;DHT22;58475;49.662;9.636;2024-01-07T09:06:08;3.32;84.99
70851;DHT22;58475;49.662;9.636;2024-01-07T09:08:34;3.28;85.03
70851;DHT22;58475;49.662;9.636;2024-01-07T09:11:03;3.28;84.15
70851;DHT22;58475;49.662;9.636;2024-01-07T09:13:29;3.16;84.17
70851;DHT22;58475;49.662;9.636;2024-01-07T09:15:54;3.16;83.88
70851;DHT22;58475;49.662;9.636;2024-01-07T09:18:20;3.26;84.30
70851;DHT22;58475;49.662;9.636;2024-01-07T09:20:45;3.42;84.64
70851;DHT22;58475;49.662;9.636;2024-01-07T09:23:11;3.45;84.67
70851;DHT22;58475;49.662;9.636;2024-01-07T09:25:37;3.35;84.48
70851;DHT22;58475;49.662;9.636;2024-01-07T09:28:02;3.25;83.68
70851;DHT22;58475;49.662;9.636;2024-01-07T09:30:28;3.26;83.74
70851;DHT22;58475;49.662;9.636;2024-01-07T09:32:53;3.25;84.08
70851;DHT22;58475;49.662;9.636;2024-01-07T09:35:18;3.24;83.75
70851;DHT22;58475;49.662;9.636;2024-01-07T09:37:44;3.32;83.97
70851;DHT22;58475;49.662;9.636;2024-01-07T09:40:10;3.51;83.66
70851;DHT22;58475;49.662;9.636;2024-01-07T09:42:35;3.49;83.96
70851;DHT22;58475;49.662;9.636;2024-01-07T09:45:02;3.40;82.51
70851;DHT22;58475;49.662;9.636;2024-01-07T09:47:29;3.16;83.03
70851;DHT22;58475;49.662;9.636;2024-01-07T09:49:54;3.16;82.98
70851;DHT22;58475;49.662;9.636;2024-01-07T09:52:20;3.31;83.63
70851;DHT22;58475;49.662;9.636;2024-01-07T09:54:51;3.31;83.29
70851;DHT22;58475;49.662;9.636;2024-01-07T09:57:16;3.33;83.27
70851;DHT22;58475;49.662;9.636;2024-01-07T09:59:41;3.25;82.96
70851;DHT22;58475;49.662;9.636;2024-01-07T10:02:07;3.21;83.55
70851;DHT22;58475;49.662;9.636;2024-01-07T10:04:32;3.28;83.93
70851;DHT22;58475;49.662;9.636;2024-01-07T10:06:58;3.35;83.97
70851;DHT22;58475;49.662;9.636;2024-01-07T10:09:30;3.36;83.72
70851;DHT22;58475;49.662;9.636;2024-01-07T10:11:55;3.09;84.02
70851;DHT22;58475;49.662;9.636;2024-01-07T10:14:20;3.12;83.98
70851;DHT22;58475;49.662;9.636;2024-01-07T10:16:54;3.07;83.42
70851;DHT22;58475;49.662;9.636;2024-01-07T10:19:20;2.95;82.58
70851;DHT22;58475;49.662;9.636;2024-01-07T10:21:46;2.93;83.07
70851;DHT22;58475;49.662;9.636;2024-01-07T10:24:12;2.94;82.95
70851;DHT22;58475;49.662;9.636;2024-01-07T10:26:39;2.90;83.91
70851;DHT22;58475;49.662;9.636;2024-01-07T10:29:05;2.95;84.16
70851;DHT22;58475;49.662;9.636;2024-01-07T10:31:31;2.88;82.76
70851;DHT22;58475;49.662;9.636;2024-01-07T10:33:57;2.93;83.15
70851;DHT22;58475;49.662;9.636;2024-01-07T10:36:24;2.88;83.63
70851;DHT22;58475;49.662;9.636;2024-01-07T10:38:50;2.83;83.33
70851;DHT22;58475;49.662;9.636;2024-01-07T10:41:18;2.90;83.54
70851;DHT22;58475;49.662;9.636;2024-01-07T10:43:46;3.01;83.42
70851;DHT22;58475;49.662;9.636;2024-01-07T10:46:13;2.94;83.50
70851;DHT22;58475;49.662;9.636;2024-01-07T10:48:49;2.73;82.69
70851;DHT22;58475;49.662;9.636;2024-01-07T10:51:16;2.74;83.37
70851;DHT22;58475;49.662;9.636;2024-01-07T10:53:43;2.77;83.61
70851;DHT22;58475;49.662;9.636;2024-01-07T10:56:11;2.79;83.23
70851;DHT22;58475;49.662;9.636;2024-01-07T10:58:39;2.63;82.42
70851;DHT22;58475;49.662;9.636;2024-01-07T11:01:05;2.57;82.80
70851;DHT22;58475;49.662;9.636;2024-01-07T11:03:45;2.54;83.27
70851;DHT22;58475;49.662;9.636;2024-01-07T11:06:29;2.54;82.50
70851;DHT22;58475;49.662;9.636;2024-01-07T11:09:06;2.49;82.77
70851;DHT22;58475;49.662;9.636;2024-01-07T11:11:38;2.57;82.88
70851;DHT22;58475;49.662;9.636;2024-01-07T11:14:39;2.61;83.40
70851;DHT22;58475;49.662;9.636;2024-01-07T11:17:07;2.53;82.24
70851;DHT22;58475;49.662;9.636;2024-01-07T11:19:35;2.46;82.59
70851;DHT22;58475;49.662;9.636;2024-01-07T11:22:28;2.49;82.32
70851;DHT22;58475;49.662;9.636;2024-01-07T11:24:55;2.39;82.14
70851;DHT22;58475;49.662;9.636;2024-01-07T11:27:24;2.35;82.88
70851;DHT22;58475;49.662;9.636;2024-01-07T11:29:56;2.32;82.36
70851;DHT22;58475;49.662;9.636;2024-01-07T11:32:23;2.25;82.69
70851;DHT22;58475;49.662;9.636;2024-01-07T11:34:50;2.35;82.62
70851;DHT22;58475;49.662;9.636;2024-01-07T11:37:18;2.33;82.94
70851;DHT22;58475;49.662;9.636;2024-01-07T11:39:45;2.29;81.98
70851;DHT22;58475;49.662;9.636;2024-01-07T11:42:10;2.32;82.70
70851;DHT22;58475;49.662;9.636;2024-01-07T11:44:37;2.33;82.92
70851;DHT22;58475;49.662;9.636;2024-01-07T11:47:04;2.25;83.28
70851;DHT22;58475;49.662;9.636;2024-01-07T11:49:31;2.15;81.88
70851;DHT22;58475;49.662;9.636;2024-01-07T11:51:57;2.06;82.69
70851;DHT22;58475;49.662;9.636;2024-01-07T11:54:22;2.18;83.08
70851;DHT22;58475;49.662;9.636;2024-01-07T11:56:47;2.12;82.50
70851;DHT22;58475;49.662;9.636;2024-01-07T11:59:13;2.08;82.74
70851;DHT22;58475;49.662;9.636;2024-01-07T12:01:38;1.99;82.59
70851;DHT22;58475;49.662;9.636;2024-01-07T12:04:04;2.04;82.58
70851;DHT22;58475;49.662;9.636;2024-01-07T12:06:29;2.13;83.16
70851;DHT22;58475;49.662;9.636;2024-01-07T12:08:55;2.01;82.42
70851;DHT22;58475;49.662;9.636;2024-01-07T12:11:20;2.05;82.58
70851;DHT22;58475;49.662;9.636;2024-01-07T12:13:46;2.06;82.63
70851;DHT22;58475;49.662;9.636;2024-01-07T12:16:11;2.01;83.25
70851;DHT22;58475;49.662;9.636;2024-01-07T12:18:40;2.09;83.18
70851;DHT22;58475;49.662;9.636;2024-01-07T12:21:05;2.08;83.23
70851;DHT22;58475;49.662;9.636;2024-01-07T12:23:37;2.13;83.78
70851;DHT22;58475;49.662;9.636;2024-01-07T12:26:10;2.06;82.76
70851;DHT22;58475;49.662;9.636;2024-01-07T12:28:36;2.06;82.06
70851;DHT22;58475;49.662;9.636;2024-01-07T12:31:03;1.97;82.89
70851;DHT22;58475;49.662;9.636;2024-01-07T12:33:29;2.04;83.36
70851;DHT22;58475;49.662;9.636;2024-01-07T12:35:56;1.95;83.06
70851;DHT22;58475;49.662;9.636;2024-01-07T12:38:24;1.95;82.65
70851;DHT22;58475;49.662;9.636;2024-01-07T12:40:51;2.04;83.21
70851;DHT22;58475;49.662;9.636;2024-01-07T12:43:17;2.01;82.68
70851;DHT22;58475;49.662;9.636;2024-01-07T12:45:42;2.05;82.60
70851;DHT22;58475;49.662;9.636;2024-01-07T12:48:07;2.15;82.45
70851;DHT22;58475;49.662;9.636;2024-01-07T12:50:33;2.12;82.42
70851;DHT22;58475;49.662;9.636;2024-01-07T12:52:58;2.09;82.42
70851;DHT22;58475;49.662;9.636;2024-01-07T12:55:24;1.94;82.04
70851;DHT22;58475;49.662;9.636;2024-01-07T12:57:51;1.97;82.02
70851;DHT22;58475;49.662;9.636;2024-01-07T13:00:17;2.02;81.70
70851;DHT22;58475;49.662;9.636;2024-01-07T13:02:43;1.85;82.68
70851;DHT22;58475;49.662;9.636;2024-01-07T13:05:08;1.78;81.70
70851;DHT22;58475;49.662;9.636;2024-01-07T13:07:34;1.74;81.91
70851;DHT22;58475;49.662;9.636;2024-01-07T13:09:59;1.71;82.16
70851;DHT22;58475;49.662;9.636;2024-01-07T13:12:25;1.63;81.72
70851;DHT22;58475;49.662;9.636;2024-01-07T13:14:52;1.67;82.54
70851;DHT22;58475;49.662;9.636;2024-01-07T13:17:17;1.67;82.55
70851;DHT22;58475;49.662;9.636;2024-01-07T13:19:43;1.64;82.04
70851;DHT22;58475;49.662;9.636;2024-01-07T13:22:08;1.58;82.58
70851;DHT22;58475;49.662;9.636;2024-01-07T13:24:34;1.65;81.86
70851;DHT22;58475;49.662;9.636;2024-01-07T13:27:00;1.64;81.79
70851;DHT22;58475;49.662;9.636;2024-01-07T13:29:25;1.67;81.81
70851;DHT22;58475;49.662;9.636;2024-01-07T13:31:51;1.65;81.97
70851;DHT22;58475;49.662;9.636;2024-01-07T13:34:16;1.55;82.43
70851;DHT22;58475;49.662;9.636;2024-01-07T13:36:43;1.60;82.09
70851;DHT22;58475;49.662;9.636;2024-01-07T13:39:09;1.55;82.58
70851;DHT22;58475;49.662;9.636;2024-01-07T13:41:34;1.63;81.62
70851;DHT22;58475;49.662;9.636;2024-01-07T13:44:00;1.54;82.16
70851;DHT22;58475;49.662;9.636;2024-01-07T13:46:26;1.61;81.83
70851;DHT22;58475;49.662;9.636;2024-01-07T13:48:51;1.55;81.88
70851;DHT22;58475;49.662;9.636;2024-01-07T13:51:17;1.54;81.80
70851;DHT22;58475;49.662;9.636;2024-01-07T13:53:43;1.54;81.63
70851;DHT22;58475;49.662;9.636;2024-01-07T13:56:08;1.46;81.65
70851;DHT22;58475;49.662;9.636;2024-01-07T13:58:33;1.30;81.86
70851;DHT22;58475;49.662;9.636;2024-01-07T14:00:59;1.46;82.21
70851;DHT22;58475;49.662;9.636;2024-01-07T14:03:24;1.61;82.06
70851;DHT22;58475;49.662;9.636;2024-01-07T14:05:50;1.50;81.86
70851;DHT22;58475;49.662;9.636;2024-01-07T14:08:16;1.48;81.87
70851;DHT22;58475;49.662;9.636;2024-01-07T14:10:42;1.33;81.76
70851;DHT22;58475;49.662;9.636;2024-01-07T14:13:07;1.27;82.37
70851;DHT22;58475;49.662;9.636;2024-01-07T14:15:32;1.34;82.13
70851;DHT22;58475;49.662;9.636;2024-01-07T14:17:58;1.24;82.17
70851;DHT22;58475;49.662;9.636;2024-01-07T14:20:23;1.19;81.84
70851;DHT22;58475;49.662;9.636;2024-01-07T14:22:48;1.22;81.26
70851;DHT22;58475;49.662;9.636;2024-01-07T14:25:14;1.22;81.43
70851;DHT22;58475;49.662;9.636;2024-01-07T14:27:40;1.24;81.73
70851;DHT22;58475;49.662;9.636;2024-01-07T14:30:06;1.23;81.59
70851;DHT22;58475;49.662;9.636;2024-01-07T14:32:32;1.23;81.35
70851;DHT22;58475;49.662;9.636;2024-01-07T14:34:58;1.13;81.89
70851;DHT22;58475;49.662;9.636;2024-01-07T14:37:23;1.16;81.89
70851;DHT22;58475;49.662;9.636;2024-01-07T14:39:49;1.12;81.23
70851;DHT22;58475;49.662;9.636;2024-01-07T14:42:14;1.13;81.47
70851;DHT22;58475;49.662;9.636;2024-01-07T14:44:40;1.05;81.43
70851;DHT22;58475;49.662;9.636;2024-01-07T14:47:06;1.03;81.68
70851;DHT22;58475;49.662;9.636;2024-01-07T14:49:31;1.09;81.43
70851;DHT22;58475;49.662;9.636;2024-01-07T14:51:57;1.02;80.70
70851;DHT22;58475;49.662;9.636;2024-01-07T14:54:22;0.93;81.16
70851;DHT22;58475;49.662;9.636;2024-01-07T14:56:48;0.96;81.21
70851;DHT22;58475;49.662;9.636;2024-01-07T14:59:13;0.93;80.83
70851;DHT22;58475;49.662;9.636;2024-01-07T15:01:39;0.91;81.22
70851;DHT22;58475;49.662;9.636;2024-01-07T15:04:07;1.00;81.26
70851;DHT22;58475;49.662;9.636;2024-01-07T15:06:42;0.93;81.55
70851;DHT22;58475;49.662;9.636;2024-01-07T15:09:09;0.99;81.32
70851;DHT22;58475;49.662;9.636;2024-01-07T15:11:35;1.03;80.27
70851;DHT22;58475;49.662;9.636;2024-01-07T15:14:00;0.89;81.09
70851;DHT22;58475;49.662;9.636;2024-01-07T15:16:28;0.82;81.87
70851;DHT22;58475;49.662;9.636;2024-01-07T15:18:53;0.81;81.05
70851;DHT22;58475;49.662;9.636;2024-01-07T15:21:18;0.78;81.06
70851;DHT22;58475;49.662;9.636;2024-01-07T15:23:44;0.74;80.64
70851;DHT22;58475;49.662;9.636;2024-01-07T15:26:09;0.71;81.36
70851;DHT22;58475;49.662;9.636;2024-01-07T15:28:34;0.66;80.10
70851;DHT22;58475;49.662;9.636;2024-01-07T15:31:00;0.65;79.84
70851;DHT22;58475;49.662;9.636;2024-01-07T15:33:25;0.61;80.89
70851;DHT22;58475;49.662;9.636;2024-01-07T15:35:51;0.55;80.92
70851;DHT22;58475;49.662;9.636;2024-01-07T15:38:17;0.60;80.67